Admiral Richard E. Bennis — WDB4785 — position and weather

sailwx.info

Track history (hours):
 
Tides and Currents Weather Stations Pressure Air Temp Water Temp Dewpoint Dewpoint Depression Visibility Wind Speed Wind Dir Waves Ship Positions

Admiral Richard E. Bennis

Owner: PORT IMPERIAL FERRY CORP, WEEHAWKEN, NJ. More information available from US FCC via Universal Licensing System and Coast Guard Vessel Documentation Center.

Last reported at 2015-May-05 14:34 UTC. Time now 2015-May-30 20:35 UTC.
Position N 40°46' W 074°01'.
Warning: this ship's position is 25 days out of date.

Date/timePositionNaut miles runAvg speedWind from/ knotsBaromVisibWave heightAir tempDewpointWater temp
2015-May-05 14:34N 40°46' W 074°01'1 0.7
2015-May-05 13:34N 40°45' W 074°01'3 3.3
2015-May-05 12:34N 40°42' W 074°01'4 3.5
2015-May-05 11:34N 40°46' W 074°00'4 3.5
2015-May-05 10:34N 40°42' W 074°00'4 4.5
2015-May-05 09:33N 40°47' W 074°01'0 0.0
2015-May-05 03:07N 40°47' W 074°00'1 1.8
2015-May-05 02:34N 40°46' W 074°01'0 0.2
2015-May-05 01:33N 40°46' W 074°00'0 0.0
2015-May-05 00:33N 40°46' W 074°00'3 3.3
2015-May-04 23:34N 40°42' W 074°01'3 3.2
2015-May-04 22:34N 40°46' W 074°01'0 0.2
2015-May-04 21:33N 40°46' W 074°01'2 2.2
2015-May-04 20:33N 40°43' W 074°01'1 0.5
2015-May-04 19:33N 40°43' W 074°01'3 0.7
2015-May-04 14:34N 40°46' W 074°01'0 0.0
2015-May-03 21:06N 40°46' W 074°01'0 0.0
2015-May-03 20:33N 40°46' W 074°01'0 0.0
2015-May-03 19:33N 40°46' W 074°01'0 0.0
2015-May-03 18:33N 40°46' W 074°01'0 0.0
2015-May-03 17:33N 40°46' W 074°01'0 0.0
2015-May-03 16:33N 40°46' W 074°01'0 0.0
2015-May-03 15:33N 40°46' W 074°01'0 0.0
2015-May-03 14:34N 40°46' W 074°01'0 0.0
2015-May-03 13:34N 40°46' W 074°01'0 0.0
2015-May-03 12:33N 40°46' W 074°01'0 0.0
2015-May-03 11:33N 40°46' W 074°01'0 0.0
2015-May-03 10:33N 40°46' W 074°01'0 0.0
2015-May-03 09:33N 40°46' W 074°01'0 0.0
2015-May-03 08:33N 40°46' W 074°01'0 0.0
2015-May-03 07:33N 40°46' W 074°01'0 0.0
2015-May-03 06:33N 40°46' W 074°01'0 0.0
2015-May-03 05:33N 40°46' W 074°01'0 0.0
2015-May-03 04:33N 40°46' W 074°01'0 0.0
2015-May-03 03:33N 40°46' W 074°01'0 0.0
2015-May-03 02:33N 40°46' W 074°01'0 0.0
2015-May-03 01:33N 40°46' W 074°01'0 0.0
2015-May-03 00:33N 40°46' W 074°01'0 0.0
2015-May-02 23:33N 40°46' W 074°01'0 0.0
2015-May-02 22:33N 40°46' W 074°01'0 0.0
2015-May-02 21:33N 40°46' W 074°01'0 0.0
2015-May-02 20:34N 40°46' W 074°01'0 0.0
2015-May-02 19:33N 40°46' W 074°01'0 0.0
2015-May-02 18:33N 40°46' W 074°01'0 0.0
2015-May-02 17:33N 40°46' W 074°01'0 0.0
2015-May-02 16:33N 40°46' W 074°01'0 0.0
2015-May-02 15:33N 40°46' W 074°01'0 0.0
2015-May-02 14:33N 40°46' W 074°01'0 0.0
2015-May-02 13:33N 40°46' W 074°01'0 0.0
2015-May-02 10:29N 40°46' W 074°01'0 0.0
2015-May-02 09:33N 40°46' W 074°01'0 0.0
2015-May-02 08:33N 40°46' W 074°01'0 0.0
2015-May-02 07:33N 40°46' W 074°01'0 0.0
2015-May-02 06:33N 40°46' W 074°01'0 0.0
2015-May-02 05:33N 40°46' W 074°01'0 0.0
2015-May-01 21:34N 40°46' W 074°01'2019.2
2015-May-01 20:30N 40°26' W 074°05'1717.8
2015-May-01 19:33N 40°43' W 074°01'3 0.6
2015-May-01 13:34N 40°46' W 074°01'1514.9
2015-May-01 12:33N 40°32' W 074°04'9 9.2
2015-May-01 11:34N 40°40' W 074°02'2 1.8
2015-May-01 10:33N 40°42' W 074°00'4 4.3
2015-May-01 09:33N 40°46' W 074°01'0 0.0
2015-May-01 08:33N 40°46' W 074°01'0 0.0
2015-May-01 07:33N 40°46' W 074°01'0 0.0
2015-May-01 06:33N 40°46' W 074°01'0 0.0
2015-May-01 05:33N 40°46' W 074°01'0 0.0
2015-May-01 04:33N 40°46' W 074°01'0 0.0
2015-May-01 03:33N 40°46' W 074°01'0 0.0
2015-May-01 02:33N 40°46' W 074°01'4 1.3
2015-Apr-30 23:33N 40°42' W 074°01'1 1.4
2015-Apr-30 22:34N 40°44' W 074°01'3 2.9
2015-Apr-30 21:34N 40°47' W 074°01'3 3.1
2015-Apr-30 20:34N 40°44' W 074°01'1 1.4
2015-Apr-30 19:33N 40°42' W 074°01'4 0.8
2015-Apr-30 14:20N 40°46' W 074°01'0 0.6
2015-Apr-30 13:34N 40°46' W 074°01'4 3.8
2015-Apr-30 12:34N 40°42' W 074°01'4 3.7
2015-Apr-30 11:34N 40°46' W 074°00'4 3.8
2015-Apr-30 10:34N 40°42' W 074°01'1 0.1
2015-Apr-29 23:34N 40°42' W 074°01'2 1.7
2015-Apr-29 22:34N 40°44' W 074°01'2 2.5
2015-Apr-29 21:34N 40°47' W 074°01'3 3.0
2015-Apr-29 20:33N 40°44' W 074°01'2 1.7
2015-Apr-29 19:34N 40°42' W 074°01'4 0.8
2015-Apr-29 14:21N 40°46' W 074°01'1 0.7
2015-Apr-29 13:34N 40°46' W 074°01'4 3.6
2015-Apr-29 12:34N 40°42' W 074°01'4 3.7
2015-Apr-29 11:34N 40°46' W 074°00'4 3.8
2015-Apr-29 10:34N 40°42' W 074°00'4 4.3
2015-Apr-29 09:33N 40°46' W 074°01'0 0.0
2015-Apr-29 08:33N 40°46' W 074°01'0 0.0
2015-Apr-29 07:33N 40°46' W 074°01'0 0.0
2015-Apr-29 06:33N 40°46' W 074°01'0 0.0
2015-Apr-28 18:29N 40°46' W 074°01'25 6.0
2015-Apr-28 14:14N 41°12' W 073°57'1 0.1
2015-Apr-27 20:24N 41°11' W 073°56'  
Track history (hours):
 
Tides and Currents Weather Stations Pressure Air Temp Water Temp Dewpoint Dewpoint Depression Visibility Wind Speed Wind Dir Waves Ship Positions

Admiral Richard E. Bennis

Owner: PORT IMPERIAL FERRY CORP, WEEHAWKEN, NJ. More information available from US FCC via Universal Licensing System and Coast Guard Vessel Documentation Center.

Last reported at 2015-May-05 14:34 UTC. Time now 2015-May-30 20:35 UTC.
Position N 40°46' W 074°01'.
Warning: this ship's position is 25 days out of date.

Date/timePositionNaut miles runAvg speedWind from/ knotsBaromVisibWave heightAir tempDewpointWater temp
2015-May-05 14:34N 40°46' W 074°01'1 0.7
2015-May-05 13:34N 40°45' W 074°01'3 3.3
2015-May-05 12:34N 40°42' W 074°01'4 3.5
2015-May-05 11:34N 40°46' W 074°00'4 3.5
2015-May-05 10:34N 40°42' W 074°00'4 4.5
2015-May-05 09:33N 40°47' W 074°01'0 0.0
2015-May-05 03:07N 40°47' W 074°00'1 1.8
2015-May-05 02:34N 40°46' W 074°01'0 0.2
2015-May-05 01:33N 40°46' W 074°00'0 0.0
2015-May-05 00:33N 40°46' W 074°00'3 3.3
2015-May-04 23:34N 40°42' W 074°01'3 3.2
2015-May-04 22:34N 40°46' W 074°01'0 0.2
2015-May-04 21:33N 40°46' W 074°01'2 2.2
2015-May-04 20:33N 40°43' W 074°01'1 0.5
2015-May-04 19:33N 40°43' W 074°01'3 0.7
2015-May-04 14:34N 40°46' W 074°01'0 0.0
2015-May-03 21:06N 40°46' W 074°01'0 0.0
2015-May-03 20:33N 40°46' W 074°01'0 0.0
2015-May-03 19:33N 40°46' W 074°01'0 0.0
2015-May-03 18:33N 40°46' W 074°01'0 0.0
2015-May-03 17:33N 40°46' W 074°01'0 0.0
2015-May-03 16:33N 40°46' W 074°01'0 0.0
2015-May-03 15:33N 40°46' W 074°01'0 0.0
2015-May-03 14:34N 40°46' W 074°01'0 0.0
2015-May-03 13:34N 40°46' W 074°01'0 0.0
2015-May-03 12:33N 40°46' W 074°01'0 0.0
2015-May-03 11:33N 40°46' W 074°01'0 0.0
2015-May-03 10:33N 40°46' W 074°01'0 0.0
2015-May-03 09:33N 40°46' W 074°01'0 0.0
2015-May-03 08:33N 40°46' W 074°01'0 0.0
2015-May-03 07:33N 40°46' W 074°01'0 0.0
2015-May-03 06:33N 40°46' W 074°01'0 0.0
2015-May-03 05:33N 40°46' W 074°01'0 0.0
2015-May-03 04:33N 40°46' W 074°01'0 0.0
2015-May-03 03:33N 40°46' W 074°01'0 0.0
2015-May-03 02:33N 40°46' W 074°01'0 0.0
2015-May-03 01:33N 40°46' W 074°01'0 0.0
2015-May-03 00:33N 40°46' W 074°01'0 0.0
2015-May-02 23:33N 40°46' W 074°01'0 0.0
2015-May-02 22:33N 40°46' W 074°01'0 0.0
2015-May-02 21:33N 40°46' W 074°01'0 0.0
2015-May-02 20:34N 40°46' W 074°01'0 0.0
2015-May-02 19:33N 40°46' W 074°01'0 0.0
2015-May-02 18:33N 40°46' W 074°01'0 0.0
2015-May-02 17:33N 40°46' W 074°01'0 0.0
2015-May-02 16:33N 40°46' W 074°01'0 0.0
2015-May-02 15:33N 40°46' W 074°01'0 0.0
2015-May-02 14:33N 40°46' W 074°01'0 0.0
2015-May-02 13:33N 40°46' W 074°01'0 0.0
2015-May-02 10:29N 40°46' W 074°01'0 0.0
2015-May-02 09:33N 40°46' W 074°01'0 0.0
2015-May-02 08:33N 40°46' W 074°01'0 0.0
2015-May-02 07:33N 40°46' W 074°01'0 0.0
2015-May-02 06:33N 40°46' W 074°01'0 0.0
2015-May-02 05:33N 40°46' W 074°01'0 0.0
2015-May-01 21:34N 40°46' W 074°01'2019.2
2015-May-01 20:30N 40°26' W 074°05'1717.8
2015-May-01 19:33N 40°43' W 074°01'3 0.6
2015-May-01 13:34N 40°46' W 074°01'1514.9
2015-May-01 12:33N 40°32' W 074°04'9 9.2
2015-May-01 11:34N 40°40' W 074°02'2 1.8
2015-May-01 10:33N 40°42' W 074°00'4 4.3
2015-May-01 09:33N 40°46' W 074°01'0 0.0
2015-May-01 08:33N 40°46' W 074°01'0 0.0
2015-May-01 07:33N 40°46' W 074°01'0 0.0
2015-May-01 06:33N 40°46' W 074°01'0 0.0
2015-May-01 05:33N 40°46' W 074°01'0 0.0
2015-May-01 04:33N 40°46' W 074°01'0 0.0
2015-May-01 03:33N 40°46' W 074°01'0 0.0
2015-May-01 02:33N 40°46' W 074°01'4 1.3
2015-Apr-30 23:33N 40°42' W 074°01'1 1.4
2015-Apr-30 22:34N 40°44' W 074°01'3 2.9
2015-Apr-30 21:34N 40°47' W 074°01'3 3.1
2015-Apr-30 20:34N 40°44' W 074°01'1 1.4
2015-Apr-30 19:33N 40°42' W 074°01'4 0.8
2015-Apr-30 14:20N 40°46' W 074°01'0 0.6
2015-Apr-30 13:34N 40°46' W 074°01'4 3.8
2015-Apr-30 12:34N 40°42' W 074°01'4 3.7
2015-Apr-30 11:34N 40°46' W 074°00'4 3.8
2015-Apr-30 10:34N 40°42' W 074°01'1 0.1
2015-Apr-29 23:34N 40°42' W 074°01'2 1.7
2015-Apr-29 22:34N 40°44' W 074°01'2 2.5
2015-Apr-29 21:34N 40°47' W 074°01'3 3.0
2015-Apr-29 20:33N 40°44' W 074°01'2 1.7
2015-Apr-29 19:34N 40°42' W 074°01'4 0.8
2015-Apr-29 14:21N 40°46' W 074°01'1 0.7
2015-Apr-29 13:34N 40°46' W 074°01'4 3.6
2015-Apr-29 12:34N 40°42' W 074°01'4 3.7
2015-Apr-29 11:34N 40°46' W 074°00'4 3.8
2015-Apr-29 10:34N 40°42' W 074°00'4 4.3
2015-Apr-29 09:33N 40°46' W 074°01'0 0.0
2015-Apr-29 08:33N 40°46' W 074°01'0 0.0
2015-Apr-29 07:33N 40°46' W 074°01'0 0.0
2015-Apr-29 06:33N 40°46' W 074°01'0 0.0
2015-Apr-28 18:29N 40°46' W 074°01'25 6.0
2015-Apr-28 14:14N 41°12' W 073°57'1 0.1
2015-Apr-27 20:24N 41°11' W 073°56'  

Dump ship's entire track history